Time;durP1;ratioP1;P1;durP2;ratioP2;P2;SDS_P1;SDS_P2;PMS_P1;PMS_P2;Temp;Humidity;BMP_temperature;BMP_pressure;BME280_temperature;BME280_humidity;BME280_pressure;Samples;Min_cycle;Max_cycle;Signal;HPM_P1;HPM_P2
2021/10/01 00:01:24;;;;;;;7.13;0.88;;;8.80;99.90;;;;;;5061896;28;20032;-68
2021/10/01 00:03:53;;;;;;;10.15;1.25;;;8.80;99.90;;;;;;5062423;28;20476;-66
2021/10/01 00:06:19;;;;;;;;;;;8.80;99.90;;;;;;5061170;28;20103;-64
2021/10/01 00:08:45;;;;;;;9.52;2.92;;;8.80;99.90;;;;;;5075451;28;19974;-64
2021/10/01 00:11:10;;;;;;;;;;;8.80;99.90;;;;;;5079605;28;20443;-65
2021/10/01 00:13:37;;;;;;;6.32;1.30;;;8.80;99.90;;;;;;5062337;28;19917;-65
2021/10/01 00:16:03;;;;;;;6.18;0.93;;;8.80;99.90;;;;;;5083782;28;20033;-65
2021/10/01 00:18:29;;;;;;;4.25;1.10;;;8.80;99.90;;;;;;5050330;28;20095;-65
2021/10/01 00:20:55;;;;;;;;;;;8.80;99.90;;;;;;5049769;28;20037;-64
2021/10/01 00:23:20;;;;;;;8.68;1.75;;;8.80;99.90;;;;;;5049390;28;19920;-64
2021/10/01 00:25:45;;;;;;;;;;;8.90;99.90;;;;;;5049176;28;20191;-64
2021/10/01 00:28:11;;;;;;;5.45;0.88;;;8.90;99.90;;;;;;5048492;28;19998;-64
2021/10/01 00:30:36;;;;;;;;;;;8.90;99.90;;;;;;5049583;28;20044;-64
2021/10/01 00:33:02;;;;;;;2.92;1.02;;;9.00;99.90;;;;;;5048501;28;19928;-64
2021/10/01 00:35:28;;;;;;;;;;;9.10;99.90;;;;;;5049312;28;20058;-65
2021/10/01 00:37:53;;;;;;;1.60;0.82;;;9.10;99.90;;;;;;5047612;28;19925;-64
2021/10/01 00:40:20;;;;;;;;;;;9.10;99.90;;;;;;5049915;28;20037;-64
2021/10/01 00:42:46;;;;;;;3.67;1.20;;;9.00;99.90;;;;;;5049212;28;19928;-64
2021/10/01 00:45:11;;;;;;;6.25;1.98;;;9.00;99.90;;;;;;5062864;28;20041;-64
2021/10/01 00:47:37;;;;;;;;;;;9.10;99.90;;;;;;5046620;28;20472;-64
2021/10/01 00:50:03;;;;;;;7.15;1.00;;;9.10;99.90;;;;;;5048303;28;19917;-64
2021/10/01 00:52:29;;;;;;;4.32;1.20;;;9.10;99.90;;;;;;5048030;28;20147;-64
2021/10/01 00:54:54;;;;;;;;;;;9.20;99.90;;;;;;5048355;28;20123;-64
2021/10/01 00:57:20;;;;;;;8.07;0.90;;;9.20;99.90;;;;;;5046454;28;20300;-64
2021/10/01 00:59:45;;;;;;;;;;;9.30;99.90;;;;;;5048818;28;20090;-64
2021/10/01 01:02:11;;;;;;;6.82;1.52;;;9.20;99.90;;;;;;5045531;28;19917;-64
2021/10/01 01:04:43;;;;;;;4.70;0.90;;;9.20;99.90;;;;;;5047865;28;20045;-65
2021/10/01 01:07:33;;;;;;;5.60;0.82;;;9.20;99.90;;;;;;5077187;28;20041;-64
2021/10/01 01:10:10;;;;;;;5.70;0.73;;;9.30;99.90;;;;;;5046554;28;20678;-64
2021/10/01 01:12:57;;;;;;;12.23;1.33;;;9.40;99.90;;;;;;5041457;28;20497;-64
2021/10/01 01:15:32;;;;;;;6.03;1.10;;;9.40;99.90;;;;;;5045812;28;20060;-64
2021/10/01 01:18:30;;;;;;;3.80;0.80;;;9.40;99.90;;;;;;5046364;28;20098;-64
2021/10/01 01:20:58;;;;;;;;;;;9.40;99.90;;;;;;5048435;28;20037;-64
2021/10/01 01:23:39;;;;;;;3.58;0.90;;;9.40;99.90;;;;;;5046819;28;20361;-64
2021/10/01 01:29:40;;;;;;;7.68;0.82;;;9.50;99.90;;;;;;5025689;28;20064;-64
2021/10/01 01:32:15;;;;;;;3.17;0.80;;;9.50;99.90;;;;;;5062997;28;20233;-64
2021/10/01 01:34:48;;;;;;;4.07;0.63;;;9.50;99.90;;;;;;5073623;28;20044;-64
2021/10/01 01:37:18;;;;;;;7.88;0.85;;;9.50;99.90;;;;;;5074591;28;20043;-64
2021/10/01 01:39:46;;;;;;;4.68;1.67;;;9.60;99.90;;;;;;5067146;28;20048;-64
2021/10/01 01:42:12;;;;;;;7.30;1.33;;;9.60;99.90;;;;;;5066930;28;20059;-64
2021/10/01 01:44:39;;;;;;;4.57;1.58;;;9.60;99.90;;;;;;5073033;28;20097;-64
2021/10/01 01:47:05;;;;;;;5.63;1.27;;;9.60;99.90;;;;;;5072974;28;20097;-64
2021/10/01 01:49:30;;;;;;;;;;;9.50;99.90;;;;;;5075484;28;20455;-64
2021/10/01 01:52:02;;;;;;;7.90;1.33;;;9.40;99.90;;;;;;5066421;28;19916;-64
2021/10/01 01:54:30;;;;;;;6.13;1.70;;;9.50;99.90;;;;;;5067434;28;20468;-64
2021/10/01 01:56:56;;;;;;;3.55;1.10;;;9.40;99.90;;;;;;5063642;28;20111;-65
2021/10/01 01:59:24;;;;;;;2.58;0.80;;;9.40;99.90;;;;;;5065079;28;20050;-65
2021/10/01 02:01:51;;;;;;;10.00;0.90;;;9.30;99.90;;;;;;5064819;28;20424;-65
2021/10/01 02:04:18;;;;;;;8.27;1.48;;;9.30;99.90;;;;;;5067245;28;20044;-65
2021/10/01 02:06:46;;;;;;;7.85;1.00;;;9.30;99.90;;;;;;5067470;28;20053;-66
2021/10/01 02:09:13;;;;;;;6.07;1.30;;;9.20;99.90;;;;;;5068755;28;20523;-64
2021/10/01 02:11:42;;;;;;;4.05;1.23;;;9.20;99.90;;;;;;5069875;28;20052;-64
2021/10/01 02:14:08;;;;;;;10.18;1.25;;;9.20;99.90;;;;;;5066309;28;20051;-64
2021/10/01 02:16:35;;;;;;;8.73;1.33;;;9.20;99.90;;;;;;5066357;28;20040;-64
2021/10/01 02:19:03;;;;;;;6.25;1.13;;;9.20;99.90;;;;;;5068740;28;20495;-64
2021/10/01 02:21:31;;;;;;;4.13;0.80;;;9.20;99.90;;;;;;5068731;28;20081;-64
2021/10/01 02:23:56;;;;;;;3.95;1.15;;;9.20;99.90;;;;;;5068797;28;20051;-66
2021/10/01 02:26:34;;;;;;;;;;;9.10;99.90;;;;;;5068074;28;20052;-64
2021/10/01 02:29:08;;;;;;;4.07;1.00;;;9.10;99.90;;;;;;5067326;28;19916;-64
2021/10/01 02:32:03;;;;;;;5.43;1.10;;;9.00;99.90;;;;;;5068344;28;20037;-64
2021/10/01 02:34:36;;;;;;;2.20;0.73;;;8.90;99.90;;;;;;5068162;28;20115;-64
2021/10/01 02:37:05;;;;;;;7.20;1.02;;;8.90;99.90;;;;;;5066787;28;20040;-64
2021/10/01 02:39:32;;;;;;;4.25;0.85;;;8.90;99.90;;;;;;5068924;28;20215;-64
2021/10/01 02:41:57;;;;;;;5.15;0.93;;;8.80;99.90;;;;;;5065089;28;20119;-63
2021/10/01 02:44:23;;;;;;;;;;;8.80;99.90;;;;;;5074899;28;21042;-64
2021/10/01 02:46:48;;;;;;;5.03;1.08;;;8.90;99.90;;;;;;5064414;28;19920;-63
2021/10/01 02:49:14;;;;;;;;;;;8.90;99.90;;;;;;5078335;28;20040;-64
2021/10/01 02:51:46;;;;;;;5.75;1.13;;;8.90;99.90;;;;;;5080593;28;19965;-64
2021/10/01 02:54:14;;;;;;;7.10;1.23;;;8.90;99.90;;;;;;5088331;28;20047;-63
2021/10/01 02:56:46;;;;;;;4.07;0.90;;;8.90;99.90;;;;;;5070224;28;20071;-63
2021/10/01 02:59:12;;;;;;;6.53;0.80;;;8.90;99.90;;;;;;5073147;28;20040;-63
2021/10/01 03:01:40;;;;;;;22.05;10.63;;;8.90;99.90;;;;;;5079288;28;20036;-63
2021/10/01 03:04:10;;;;;;;7.82;2.08;;;8.90;99.90;;;;;;5083728;28;20045;-63
2021/10/01 03:06:41;;;;;;;66.88;33.03;;;8.80;99.90;;;;;;5061984;28;20033;-63
2021/10/01 03:09:08;;;;;;;32.47;16.67;;;8.90;99.90;;;;;;5048093;28;20041;-64
2021/10/01 03:11:34;;;;;;;7.28;2.25;;;8.80;99.90;;;;;;5047412;28;20045;-63
2021/10/01 03:14:01;;;;;;;8.68;2.50;;;8.70;99.90;;;;;;5047554;28;20120;-63
2021/10/01 03:16:29;;;;;;;11.95;5.53;;;8.70;99.90;;;;;;5062980;28;20047;-63
2021/10/01 03:18:56;;;;;;;7.03;3.28;;;8.70;99.90;;;;;;5067377;28;20109;-64
2021/10/01 03:21:23;;;;;;;6.97;1.98;;;8.70;99.90;;;;;;5067522;28;20040;-61
2021/10/01 03:23:49;;;;;;;6.22;1.55;;;8.70;99.90;;;;;;5067813;28;20317;-64
2021/10/01 03:26:17;;;;;;;;;;;8.70;99.90;;;;;;5067059;28;20703;-66
2021/10/01 03:28:44;;;;;;;3.47;0.82;;;8.80;99.90;;;;;;5067104;28;19916;-65
2021/10/01 03:31:10;;;;;;;3.38;1.05;;;8.80;99.90;;;;;;5066920;28;20071;-65
2021/10/01 03:33:36;;;;;;;;;;;8.80;99.90;;;;;;5068668;28;20427;-65
2021/10/01 03:36:01;;;;;;;6.38;0.90;;;8.70;99.90;;;;;;5066711;28;19985;-65
2021/10/01 03:38:27;;;;;;;;;;;8.70;99.90;;;;;;5067580;28;20155;-65
2021/10/01 03:40:53;;;;;;;5.05;1.08;;;8.70;99.90;;;;;;5067368;28;20065;-65
2021/10/01 03:43:24;;;;;;;6.20;1.17;;;8.70;99.90;;;;;;5067144;28;20068;-65
2021/10/01 03:45:50;;;;;;;4.65;1.00;;;8.70;99.90;;;;;;5065260;28;20052;-65
2021/10/01 03:48:16;;;;;;;7.70;1.00;;;8.70;99.90;;;;;;5065028;28;20048;-65
2021/10/01 03:50:41;;;;;;;;;;;8.70;99.90;;;;;;5066848;28;20043;-65
2021/10/01 03:53:07;;;;;;;19.83;11.93;;;8.70;99.90;;;;;;5067699;28;20088;-65
2021/10/01 03:55:33;;;;;;;26.65;15.13;;;8.80;99.90;;;;;;5069698;28;20047;-65
2021/10/01 03:57:59;;;;;;;;;;;8.70;99.90;;;;;;5068964;28;20041;-65
2021/10/01 04:00:25;;;;;;;7.32;2.38;;;8.50;99.90;;;;;;5069474;28;19920;-65
2021/10/01 04:02:50;;;;;;;;;;;8.50;99.90;;;;;;5070525;28;20040;-65
2021/10/01 04:05:16;;;;;;;10.18;3.17;;;8.50;99.90;;;;;;5069144;28;19928;-65
2021/10/01 04:07:43;;;;;;;8.75;2.13;;;8.50;99.90;;;;;;5058814;28;20048;-65
2021/10/01 04:10:10;;;;;;;5.82;1.25;;;8.50;99.90;;;;;;5050114;28;20049;-65
2021/10/01 04:12:36;;;;;;;51.10;25.77;;;8.50;99.90;;;;;;5049195;28;20044;-65
2021/10/01 04:15:02;;;;;;;;;;;8.40;99.90;;;;;;5057449;28;20091;-65
2021/10/01 04:17:28;;;;;;;11.75;2.67;;;8.40;99.90;;;;;;5066948;28;19916;-65
2021/10/01 04:19:53;;;;;;;;;;;8.40;99.90;;;;;;5069859;28;20036;-65
2021/10/01 04:22:19;;;;;;;11.73;3.22;;;8.40;99.90;;;;;;5068943;28;19916;-65
2021/10/01 04:24:44;;;;;;;;;;;8.40;99.90;;;;;;5069326;28;20533;-65
2021/10/01 04:27:10;;;;;;;4.05;1.00;;;8.40;99.90;;;;;;5067923;28;20314;-65
2021/10/01 04:29:36;;;;;;;;;;;8.40;99.90;;;;;;5069999;28;20052;-65
2021/10/01 04:32:04;;;;;;;3.88;0.90;;;8.40;99.90;;;;;;5069157;28;19962;-65
2021/10/01 04:34:33;;;;;;;4.15;1.00;;;8.40;99.90;;;;;;5069345;28;20045;-65
2021/10/01 04:36:59;;;;;;;3.92;0.82;;;8.40;99.90;;;;;;5067873;28;20123;-65
2021/10/01 04:39:25;;;;;;;5.75;1.02;;;8.40;99.90;;;;;;5069626;28;20048;-65
2021/10/01 04:41:50;;;;;;;;;;;8.40;99.90;;;;;;5069137;28;20037;-65
2021/10/01 04:44:16;;;;;;;3.03;0.95;;;8.30;99.90;;;;;;5069271;28;20002;-65
2021/10/01 04:46:42;;;;;;;5.40;1.00;;;8.20;99.90;;;;;;5082139;28;20493;-65
2021/10/01 04:49:07;;;;;;;;;;;8.20;99.90;;;;;;5069604;28;20116;-65
2021/10/01 04:51:33;;;;;;;5.13;0.63;;;8.20;99.90;;;;;;5069367;28;19916;-65
2021/10/01 04:53:58;;;;;;;;;;;8.10;99.90;;;;;;5068967;28;20670;-65
2021/10/01 04:56:24;;;;;;;2.55;0.75;;;8.10;99.90;;;;;;5067932;28;20373;-65
2021/10/01 04:58:50;;;;;;;;;;;8.10;99.90;;;;;;5068885;28;20033;-65
2021/10/01 05:01:15;;;;;;;2.88;0.90;;;8.00;99.90;;;;;;5068732;28;19939;-65
2021/10/01 05:03:40;;;;;;;;;;;8.10;99.90;;;;;;5069357;28;20052;-65
2021/10/01 05:06:06;;;;;;;4.35;0.70;;;8.10;99.90;;;;;;5068049;28;19968;-66
2021/10/01 05:08:31;;;;;;;;;;;8.20;99.90;;;;;;5068633;28;20032;-65
2021/10/01 05:10:57;;;;;;;3.75;1.10;;;8.10;99.90;;;;;;5068611;28;19955;-63
2021/10/01 05:13:23;;;;;;;;;;;8.20;99.90;;;;;;5068668;28;20037;-62
2021/10/01 05:15:49;;;;;;;2.15;0.50;;;8.20;99.90;;;;;;5066716;28;19916;-63
2021/10/01 05:18:15;;;;;;;3.53;0.80;;;8.20;99.90;;;;;;5067887;28;20182;-64
2021/10/01 05:20:41;;;;;;;7.78;1.05;;;8.20;99.90;;;;;;5068938;28;20064;-64
2021/10/01 05:23:07;;;;;;;;;;;8.20;99.90;;;;;;5068840;28;20137;-65
2021/10/01 05:25:33;;;;;;;6.03;1.20;;;8.30;99.90;;;;;;5069540;28;19916;-65
2021/10/01 05:27:58;;;;;;;8.40;3.63;;;8.20;99.90;;;;;;5069422;28;20059;-65
2021/10/01 05:30:24;;;;;;;;;;;8.20;99.90;;;;;;5067731;28;20496;-65
2021/10/01 05:32:49;;;;;;;7.28;1.55;;;8.20;99.90;;;;;;5069877;28;20388;-65
2021/10/01 05:35:16;;;;;;;;;;;8.10;99.90;;;;;;5070783;28;20048;-63
2021/10/01 05:37:42;;;;;;;5.82;1.90;;;7.90;99.90;;;;;;5068525;28;19916;-63
2021/10/01 05:40:08;;;;;;;;;;;7.90;99.90;;;;;;5069860;28;20040;-63
2021/10/01 05:42:33;;;;;;;7.38;2.63;;;8.10;99.90;;;;;;5069465;28;19948;-63
2021/10/01 05:44:59;;;;;;;;;;;8.10;99.90;;;;;;5069843;28;20499;-63
2021/10/01 05:47:25;;;;;;;5.45;1.75;;;8.10;99.90;;;;;;5059025;28;19982;-63
2021/10/01 05:49:50;;;;;;;;;;;8.10;99.90;;;;;;5061385;28;20060;-63
2021/10/01 05:54:47;;;;;;;29.15;13.88;;;8.30;99.90;;;;;;5054413;28;20143;-63
2021/10/01 05:57:13;;;;;;;8.23;3.70;;;8.40;99.90;;;;;;5068075;28;20438;-63
2021/10/01 05:59:40;;;;;;;8.98;3.15;;;8.40;99.90;;;;;;5054123;28;20043;-63
2021/10/01 06:02:10;;;;;;;6.82;2.67;;;8.40;99.90;;;;;;5066172;28;20048;-63
2021/10/01 06:04:36;;;;;;;7.65;1.23;;;8.50;99.90;;;;;;5068909;28;20481;-63
2021/10/01 06:07:01;;;;;;;;;;;8.50;99.90;;;;;;5056390;28;20110;-63
2021/10/01 06:09:27;;;;;;;5.18;1.27;;;8.50;99.90;;;;;;5092384;28;20421;-65
2021/10/01 06:11:53;;;;;;;;;;;8.50;99.90;;;;;;5068157;28;20660;-62
2021/10/01 06:14:23;;;;;;;4.10;1.33;;;8.60;99.90;;;;;;5068092;28;20399;-63
2021/10/01 06:16:50;;;;;;;2.38;0.75;;;8.60;99.90;;;;;;5064609;28;20052;-63
2021/10/01 06:19:17;;;;;;;8.57;1.02;;;8.70;99.90;;;;;;5068427;28;20037;-62
2021/10/01 06:21:43;;;;;;;4.43;0.95;;;8.70;99.90;;;;;;5067598;28;20044;-62
2021/10/01 06:24:08;;;;;;;;;;;8.90;99.90;;;;;;5069287;28;20090;-63
2021/10/01 06:26:34;;;;;;;4.63;0.60;;;9.00;99.90;;;;;;5067269;28;19928;-63
2021/10/01 06:28:59;;;;;;;;;;;9.10;99.90;;;;;;5068661;28;20047;-63
2021/10/01 06:31:25;;;;;;;1.13;0.60;;;9.20;99.90;;;;;;5060279;28;20333;-63
2021/10/01 06:33:51;;;;;;;;;;;9.30;99.90;;;;;;5067366;28;20024;-63
2021/10/01 06:36:19;;;;;;;1.08;0.43;;;9.40;99.90;;;;;;5067008;28;19924;-63
2021/10/01 06:38:46;;;;;;;3.08;0.82;;;9.50;99.90;;;;;;5068412;28;20044;-63
2021/10/01 06:41:13;;;;;;;5.97;0.73;;;9.60;99.90;;;;;;5067949;28;20059;-63
2021/10/01 06:43:39;;;;;;;5.68;0.73;;;9.70;99.90;;;;;;5068139;28;20105;-62
2021/10/01 06:46:09;;;;;;;6.70;1.15;;;9.80;99.90;;;;;;5066045;28;20086;-63
2021/10/01 06:48:48;;;;;;;5.82;1.00;;;9.80;99.90;;;;;;5067436;28;20037;-63
2021/10/01 06:51:27;;;;;;;2.65;0.63;;;9.90;99.90;;;;;;5068473;28;20041;-63
2021/10/01 07:24:04;;;;;;;;;;;10.30;99.90;;;;;;5087534;28;20068;-65
2021/10/01 07:45:55;;;;;;;5.45;0.93;;;10.90;99.90;;;;;;5070442;28;20040;-63
2021/10/01 08:18:48;;;;;;;1.77;0.90;;;12.10;97.60;;;;;;5062642;28;20040;-64
2021/10/01 08:21:15;;;;;;;7.25;0.88;;;12.10;97.50;;;;;;5072430;28;20051;-64
2021/10/01 08:23:43;;;;;;;6.05;0.85;;;12.00;98.20;;;;;;5070430;28;20048;-64
2021/10/01 08:26:12;;;;;;;1.95;0.82;;;12.10;97.40;;;;;;5065203;28;20051;-65
2021/10/01 08:28:38;;;;;;;;;;;12.10;97.50;;;;;;5066329;28;20606;-64
2021/10/01 08:31:03;;;;;;;5.78;1.20;;;12.20;98.00;;;;;;5071253;28;19923;-64
2021/10/01 08:33:29;;;;;;;;;;;12.20;96.90;;;;;;5068842;28;20090;-64
2021/10/01 08:35:55;;;;;;;3.28;0.85;;;12.40;97.20;;;;;;5071132;28;19924;-64
2021/10/01 08:38:20;;;;;;;;;;;12.40;97.70;;;;;;5071352;28;20123;-63
2021/10/01 08:40:46;;;;;;;3.55;0.82;;;12.50;96.90;;;;;;5072145;28;19963;-64
2021/10/01 08:43:11;;;;;;;;;;;12.60;96.60;;;;;;5071791;28;20480;-64
2021/10/01 08:45:37;;;;;;;6.07;1.00;;;12.70;96.80;;;;;;5070232;28;19923;-64
2021/10/01 08:48:03;;;;;;;;;;;12.80;96.20;;;;;;5070815;28;20484;-64
2021/10/01 08:50:30;;;;;;;6.78;0.90;;;12.90;96.90;;;;;;5070806;28;20364;-63
2021/10/01 08:52:59;;;;;;;5.15;1.20;;;13.00;96.20;;;;;;5071066;28;20055;-63
2021/10/01 08:55:26;;;;;;;3.38;0.82;;;13.10;96.20;;;;;;5070562;28;20057;-63
2021/10/01 08:57:52;;;;;;;7.75;0.80;;;13.20;95.90;;;;;;5069252;28;20040;-63
2021/10/01 09:00:18;;;;;;;;;;;13.30;94.10;;;;;;5103150;28;20119;-63
2021/10/01 09:02:44;;;;;;;4.97;0.90;;;13.30;94.60;;;;;;5070850;28;20003;-64
2021/10/01 09:05:09;;;;;;;;;;;13.40;95.50;;;;;;5069950;28;20748;-63
2021/10/01 09:07:35;;;;;;;4.10;1.23;;;13.50;93.90;;;;;;5068673;28;19924;-63
2021/10/01 09:10:00;;;;;;;;;;;13.60;94.70;;;;;;5070920;28;20036;-63
2021/10/01 09:12:27;;;;;;;5.70;0.70;;;13.80;95.00;;;;;;5069533;28;19923;-63
2021/10/01 09:14:56;;;;;;;1.98;0.40;;;13.90;94.00;;;;;;5069930;28;20040;-64
2021/10/01 09:17:24;;;;;;;2.00;0.68;;;14.10;95.30;;;;;;5068243;28;20420;-63
2021/10/01 09:19:51;;;;;;;2.80;0.70;;;14.20;92.90;;;;;;5070055;28;20052;-64
2021/10/01 09:22:37;;;;;;;4.93;0.80;;;14.30;93.90;;;;;;5069784;28;20094;-63
2021/10/01 09:25:16;;;;;;;8.60;1.77;;;14.40;92.60;;;;;;5069672;28;20404;-63
2021/10/01 09:27:43;;;;;;;3.78;0.60;;;14.50;93.80;;;;;;5067177;28;20642;-64
2021/10/01 09:30:11;;;;;;;2.17;0.85;;;14.60;93.40;;;;;;5069290;28;20660;-64
2021/10/01 09:32:38;;;;;;;3.45;1.45;;;14.80;93.60;;;;;;5069325;28;20040;-64
2021/10/01 09:35:13;;;;;;;1.77;0.95;;;14.80;93.90;;;;;;5069788;28;20143;-63
2021/10/01 09:37:40;;;;;;;7.32;3.33;;;14.90;92.30;;;;;;5068409;28;20440;-64
2021/10/01 09:40:07;;;;;;;12.02;0.80;;;14.80;91.20;;;;;;5073073;28;20098;-64
2021/10/01 09:42:43;;;;;;;3.22;0.95;;;14.80;91.30;;;;;;5085437;28;20029;-63
2021/10/01 09:45:10;;;;;;;5.82;0.90;;;14.80;91.60;;;;;;5080371;28;20044;-64
2021/10/01 09:50:40;;;;;;;3.65;0.98;;;14.90;92.50;;;;;;5830988;23;19932;-63
2021/10/01 09:53:06;;;;;;;6.25;1.02;;;15.10;93.20;;;;;;5003999;28;20141;-59
2021/10/01 09:55:36;;;;;;;;;;;15.20;91.10;;;;;;5001895;28;20496;-57
2021/10/01 09:58:08;;;;;;;5.35;2.10;;;15.20;90.60;;;;;;5000118;28;19925;-59
2021/10/01 10:00:39;;;;;;;8.43;3.55;;;15.30;90.80;;;;;;5003831;28;20042;-56
2021/10/01 10:03:13;;;;;;;3.33;0.80;;;15.30;90.40;;;;;;5000116;28;20050;-60
2021/10/01 10:06:00;;;;;;;0.88;0.57;;;15.40;91.30;;;;;;5006556;28;20042;-62
2021/10/01 10:08:30;;;;;;;2.97;0.70;;;15.50;90.40;;;;;;5007122;28;20050;-59
2021/10/01 10:10:57;;;;;;;0.85;0.50;;;15.50;90.00;;;;;;5000402;28;20100;-57
2021/10/01 10:13:46;;;;;;;2.35;0.60;;;15.50;90.60;;;;;;5003770;28;20572;-59
2021/10/01 10:16:18;;;;;;;5.50;0.90;;;15.50;88.50;;;;;;5006988;28;20038;-56
2021/10/01 10:18:46;;;;;;;6.20;0.60;;;15.60;88.50;;;;;;5000488;28;20046;-59
2021/10/01 10:21:13;;;;;;;2.55;0.85;;;15.70;88.90;;;;;;5003808;28;20050;-57
2021/10/01 10:23:39;;;;;;;6.30;0.65;;;15.70;88.80;;;;;;5008105;28;20052;-54
2021/10/01 10:26:05;;;;;;;;;;;15.80;88.40;;;;;;5008576;28;20409;-60
2021/10/01 10:28:34;;;;;;;2.15;0.77;;;15.90;87.90;;;;;;5006738;28;20031;-58
2021/10/01 10:31:00;;;;;;;2.55;0.75;;;16.00;89.10;;;;;;5006248;28;20040;-59
2021/10/01 10:33:48;;;;;;;3.40;0.90;;;16.00;89.80;;;;;;5008849;28;20540;-59
2021/10/01 10:36:36;;;;;;;2.10;0.47;;;16.10;90.10;;;;;;4997352;28;20042;-57
2021/10/01 10:39:11;;;;;;;2.75;0.68;;;16.20;85.70;;;;;;5004812;28;20401;-62
2021/10/01 10:41:40;;;;;;;2.28;0.40;;;16.20;86.10;;;;;;5002467;28;20145;-61
2021/10/01 10:44:07;;;;;;;7.28;1.50;;;16.20;84.00;;;;;;5006535;28;20184;-62
2021/10/01 10:46:35;;;;;;;3.58;0.85;;;16.20;84.30;;;;;;5007592;28;20131;-61
2021/10/01 10:49:23;;;;;;;1.25;0.50;;;16.20;84.30;;;;;;5007997;28;20545;-61
2021/10/01 10:51:58;;;;;;;4.57;0.90;;;16.30;83.00;;;;;;5002860;28;20443;-62
2021/10/01 10:54:29;;;;;;;2.78;0.40;;;16.40;84.20;;;;;;5007609;28;20050;-61
2021/10/01 10:57:21;;;;;;;2.72;0.70;;;16.50;83.30;;;;;;5003395;28;20050;-60
2021/10/01 11:02:33;;;;;;;6.20;1.30;;;16.60;81.20;;;;;;4999921;23;20451;-62
2021/10/01 11:05:26;;;;;;;4.63;1.40;;;16.60;84.60;;;;;;4991669;28;20042;-60
2021/10/01 11:07:58;;;;;;;3.03;0.93;;;16.70;81.90;;;;;;5003033;28;20460;-61
2021/10/01 11:10:46;;;;;;;3.97;1.27;;;16.70;80.90;;;;;;4994916;28;20050;-61
2021/10/01 11:13:18;;;;;;;1.70;0.90;;;16.80;79.50;;;;;;4997143;28;20038;-62
2021/10/01 11:16:06;;;;;;;10.45;5.35;;;16.70;76.70;;;;;;4996227;28;20062;-60
2021/10/01 11:18:32;;;;;;;3.55;0.85;;;16.80;78.30;;;;;;4996100;28;20042;-61
2021/10/01 11:20:58;;;;;;;;;;;16.80;76.20;;;;;;4995532;28;20048;-61
2021/10/01 11:23:23;;;;;;;6.68;0.95;;;16.70;72.30;;;;;;5003851;28;19925;-58
2021/10/01 11:25:50;;;;;;;4.47;0.80;;;16.70;73.60;;;;;;5005789;28;20042;-56
2021/10/01 11:28:17;;;;;;;3.30;1.08;;;16.70;70.60;;;;;;5003769;28;20461;-62
2021/10/01 11:30:51;;;;;;;1.65;0.80;;;16.70;69.40;;;;;;5001137;28;20038;-60
2021/10/01 11:33:17;;;;;;;13.05;8.55;;;16.90;70.80;;;;;;4999785;28;20049;-58
2021/10/01 11:35:46;;;;;;;;;;;17.00;73.40;;;;;;5004005;28;20408;-59
2021/10/01 11:38:20;;;;;;;4.50;1.25;;;17.10;72.90;;;;;;4998955;28;19926;-57
2021/10/01 11:40:47;;;;;;;2.80;0.90;;;17.10;72.50;;;;;;5005441;28;20038;-60
2021/10/01 11:43:13;;;;;;;20.48;14.85;;;17.10;77.10;;;;;;5006185;28;20061;-62
2021/10/01 11:45:43;;;;;;;3.08;1.55;;;17.10;75.80;;;;;;5004410;28;20501;-62
2021/10/01 11:48:11;;;;;;;4.03;1.02;;;17.00;72.40;;;;;;5006731;28;20045;-61
2021/10/01 11:50:46;;;;;;;1.48;0.60;;;17.00;75.80;;;;;;5006128;28;20405;-60
2021/10/01 11:53:22;;;;;;;2.20;0.73;;;16.70;70.00;;;;;;5008614;28;20044;-57
2021/10/01 11:56:02;;;;;;;2.85;1.70;;;16.60;75.20;;;;;;5015929;28;20083;-63
2021/10/01 11:58:30;;;;;;;2.85;0.60;;;16.70;71.20;;;;;;5014482;28;20393;-62
2021/10/01 12:01:11;;;;;;;0.63;0.50;;;16.80;70.10;;;;;;5003882;28;20049;-61
2021/10/01 12:03:47;;;;;;;1.42;0.50;;;16.70;67.50;;;;;;5005807;28;20096;-62
2021/10/01 12:06:21;;;;;;;1.67;0.60;;;16.80;70.50;;;;;;5004644;28;20049;-59
2021/10/01 12:08:58;;;;;;;1.33;0.35;;;16.80;72.50;;;;;;5005997;28;20053;-61
2021/10/01 12:11:30;;;;;;;2.63;0.77;;;16.80;70.80;;;;;;5005963;28;20068;-61
2021/10/01 12:14:18;;;;;;;2.83;0.50;;;16.80;69.90;;;;;;5007660;28;20092;-61
2021/10/01 12:17:06;;;;;;;3.22;0.60;;;17.00;72.90;;;;;;5008943;28;20092;-62
2021/10/01 12:19:33;;;;;;;2.58;0.70;;;16.90;72.70;;;;;;5009817;28;20108;-61
2021/10/01 12:22:02;;;;;;;1.13;0.43;;;16.90;70.50;;;;;;5009166;28;20108;-62
2021/10/01 12:24:28;;;;;;;1.17;0.40;;;17.00;71.90;;;;;;5017526;28;20533;-61
2021/10/01 12:26:55;;;;;;;1.67;0.95;;;16.80;66.30;;;;;;5026539;28;20135;-61
2021/10/01 12:29:27;;;;;;;7.30;4.18;;;16.70;70.30;;;;;;5028354;28;20052;-61
2021/10/01 12:31:56;;;;;;;0.75;0.40;;;16.70;69.80;;;;;;5028440;28;20103;-61
2021/10/01 12:34:41;;;;;;;2.95;0.60;;;16.50;72.00;;;;;;5029147;28;20081;-61
2021/10/01 12:37:17;;;;;;;0.95;0.43;;;16.30;72.20;;;;;;5027468;28;20077;-61
2021/10/01 12:39:44;;;;;;;1.05;0.40;;;16.20;71.90;;;;;;5027986;28;20117;-62
2021/10/01 12:42:12;;;;;;;2.08;0.45;;;15.90;71.20;;;;;;5029022;28;20076;-62
2021/10/01 12:44:42;;;;;;;2.50;0.40;;;15.70;72.80;;;;;;5029425;28;20042;-61
2021/10/01 12:47:20;;;;;;;1.55;0.50;;;15.80;76.00;;;;;;5018436;28;20048;-61
2021/10/01 12:50:00;;;;;;;2.47;0.60;;;15.90;77.90;;;;;;5008453;28;20034;-60
2021/10/01 12:52:28;;;;;;;1.70;0.50;;;16.00;75.80;;;;;;5008644;28;20129;-62
2021/10/01 12:54:55;;;;;;;2.38;0.50;;;16.10;74.80;;;;;;5017727;28;20042;-62
2021/10/01 12:57:23;;;;;;;1.00;0.43;;;16.10;76.30;;;;;;5027871;28;20046;-61
2021/10/01 13:00:04;;;;;;;2.45;0.43;;;16.10;75.20;;;;;;5010027;28;20045;-58
2021/10/01 13:02:46;;;;;;;1.33;0.65;;;16.00;71.00;;;;;;5006809;28;20191;-59
2021/10/01 13:05:18;;;;;;;1.00;0.32;;;16.00;75.80;;;;;;4988774;28;20042;-60
2021/10/01 13:07:57;;;;;;;4.00;0.77;;;16.00;75.70;;;;;;4996159;28;20076;-60
2021/10/01 13:10:23;;;;;;;2.15;0.50;;;16.00;70.00;;;;;;5007800;28;20045;-61
2021/10/01 13:12:48;;;;;;;;;;;15.90;73.10;;;;;;5008464;28;20417;-61
2021/10/01 13:15:28;;;;;;;1.88;0.30;;;15.70;66.80;;;;;;5007421;28;19917;-61
2021/10/01 13:18:10;;;;;;;0.65;0.43;;;15.70;67.00;;;;;;5007945;28;20053;-61
2021/10/01 13:20:50;;;;;;;1.40;0.40;;;15.60;67.90;;;;;;5007152;28;20041;-60
2021/10/01 13:23:31;;;;;;;3.63;0.50;;;15.60;69.20;;;;;;5012070;28;20555;-61
2021/10/01 13:25:59;;;;;;;0.70;0.40;;;15.60;68.00;;;;;;5019469;28;20049;-62
2021/10/01 13:28:27;;;;;;;1.80;0.30;;;15.70;72.50;;;;;;5027465;28;20069;-60
2021/10/01 13:30:53;;;;;;;3.47;0.60;;;15.60;76.50;;;;;;5026602;28;20034;-60
2021/10/01 13:33:22;;;;;;;1.27;0.50;;;15.50;71.60;;;;;;5027928;28;20072;-60
2021/10/01 13:35:48;;;;;;;0.77;0.40;;;15.50;76.80;;;;;;5027307;28;20646;-61
2021/10/01 13:38:13;;;;;;;;;;;15.40;75.00;;;;;;5028562;28;20037;-59
2021/10/01 13:40:41;;;;;;;1.35;0.40;;;15.20;80.30;;;;;;5026631;28;19995;-60
2021/10/01 13:43:07;;;;;;;1.35;0.45;;;15.10;82.10;;;;;;5027859;28;20034;-61
2021/10/01 13:45:33;;;;;;;2.22;0.40;;;15.10;80.70;;;;;;4990902;28;20505;-60
2021/10/01 13:47:59;;;;;;;;;;;15.10;82.10;;;;;;5003487;28;20532;-61
2021/10/01 13:50:24;;;;;;;4.85;0.50;;;15.00;82.20;;;;;;5007128;28;19917;-61
2021/10/01 13:52:50;;;;;;;;;;;15.00;85.20;;;;;;5008342;28;20038;-61
2021/10/01 13:55:16;;;;;;;1.92;0.70;;;14.90;85.50;;;;;;5018402;28;20317;-61
2021/10/01 13:57:44;;;;;;;5.28;1.25;;;14.90;80.00;;;;;;5026426;28;20041;-60
2021/10/01 14:00:12;;;;;;;2.38;0.70;;;15.00;79.90;;;;;;4987531;28;20046;-60
2021/10/01 14:02:39;;;;;;;1.70;0.40;;;15.00;85.20;;;;;;4987226;28;20077;-59
2021/10/01 14:05:07;;;;;;;2.08;0.45;;;15.10;81.50;;;;;;4987298;28;20449;-61
2021/10/01 14:07:32;;;;;;;2.03;0.60;;;15.20;85.40;;;;;;4989753;28;20096;-60
2021/10/01 14:10:00;;;;;;;;;;;15.10;80.20;;;;;;5005804;28;20050;-61
2021/10/01 14:12:29;;;;;;;;;;;15.20;82.90;;;;;;5007381;28;19924;-59
2021/10/01 14:14:54;;;;;;;4.85;0.95;;;15.10;80.70;;;;;;5006994;28;20270;-60
2021/10/01 14:17:20;;;;;;;;;;;15.00;80.40;;;;;;5006185;28;20045;-61
2021/10/01 14:19:46;;;;;;;4.68;0.50;;;15.00;82.40;;;;;;5005046;28;20028;-60
2021/10/01 14:22:11;;;;;;;;;;;14.90;86.90;;;;;;5006998;28;20674;-60
2021/10/01 14:24:37;;;;;;;3.03;0.65;;;14.80;88.30;;;;;;5015099;28;19921;-61
2021/10/01 14:27:04;;;;;;;;;;;14.70;86.80;;;;;;5025670;28;20528;-60
2021/10/01 14:29:30;;;;;;;3.95;0.80;;;14.70;90.10;;;;;;5025146;28;19921;-61
2021/10/01 14:31:55;;;;;;;;;;;14.60;90.60;;;;;;5026863;28;20040;-61
2021/10/01 14:34:21;;;;;;;3.85;0.80;;;14.50;91.70;;;;;;5026773;28;19987;-61
2021/10/01 14:36:46;;;;;;;;;;;14.40;91.70;;;;;;5025440;28;20099;-60
2021/10/01 14:39:12;;;;;;;7.93;5.57;;;14.30;91.70;;;;;;5010461;28;19917;-61
2021/10/01 14:41:37;;;;;;;;;;;14.30;91.80;;;;;;5007350;28;20038;-62
2021/10/01 14:44:03;;;;;;;3.13;1.10;;;14.30;91.80;;;;;;5006633;28;19952;-61
2021/10/01 14:46:29;;;;;;;;;;;14.40;90.20;;;;;;5005800;28;20042;-61
2021/10/01 14:48:55;;;;;;;8.45;2.90;;;14.40;93.10;;;;;;5006589;28;19917;-61
2021/10/01 14:51:21;;;;;;;3.75;1.40;;;14.30;92.20;;;;;;5004593;28;20042;-60